• Join FlightAware (Why Join?)
  • Login
  • US Flag 
02:03AM EDT


 

Airport Tracker/Info


-or-


 

Live Flight TrackerFlight Track Log ✈ AVN11 ✈ 02-Jan-2014 ✈ YSSY / SYD - NVVV / VLI

Flight Track Log - Related Links

Times and Time Zones

All times are in EST time to prevent confusion due to time zone crossing. See the AVN11 flight status page for this flight to view local times or setup timezone preferences in your user account.

Time Position Orientation Groundspeed Altitude Reporting Facility
EST Latitude Longitude Course Direction KTS MPH feet Rate Location/Type
08:14PM -33.9604 151.1911 348° North 135 155  Level FlightAware ADS-B (YRAY)
08:15PM -33.9458 151.1873 348° North 170 196 700 2,460 Climbing FlightAware ADS-B (YRPA)
08:15PM -33.9388 151.1858 350° North 172 198 1,200 2,280 Climbing FlightAware ADS-B
08:15PM -33.9294 151.1882 12° North 173 199 1,500 1,740 Climbing FlightAware ADS-B (YRAY)
08:15PM -33.9256 151.1914 35° Northeast 192 221 1,700 1,200 Climbing FlightAware ADS-B
08:15PM -33.9227 151.1958 51° Northeast 196 226 1,700 480 Level FlightAware ADS-B (YSSY / SYD)
08:15PM -33.9200 151.2028 65° Northeast 206 237 1,800 1,500 Climbing FlightAware ADS-B (YRAY)
08:15PM -33.9199 151.2164 90° East 210 242 2,200 1,500 Climbing FlightAware ADS-B
08:16PM -33.9222 151.2241 110° East 219 252 2,300 1,080 Climbing FlightAware ADS-B (YRAY)
08:16PM -33.9266 151.2357 115° Southeast 238 274 2,600 780 Climbing FlightAware ADS-B
08:16PM -33.9328 151.2515 115° Southeast 245 282 2,600 1,260 Level FlightAware ADS-B (YRPA)
08:16PM -33.9362 151.2635 109° East 258 297 3,000 2,520 Climbing FlightAware ADS-B (YSSY / SYD)
08:16PM -33.9376 151.2785 96° East 256 295 3,400 2,400 Climbing FlightAware ADS-B (YRPA)
08:16PM -33.9373 151.2977 89° East 270 311 3,900 1,860 Climbing FlightAware ADS-B (YRAY)
08:17PM -33.9370 151.3067 88° East 270 311 4,000 1,080 Climbing FlightAware ADS-B (YRAY)
08:17PM -33.9356 151.3434 87° East 309 356 4,400 960 Climbing FlightAware ADS-B (YRPA)
08:17PM -33.9347 151.3783 88° East 331 381 4,700 660 Climbing FlightAware ADS-B (YRPA)
08:18PM -33.9332 151.4210 88° East 352 405 4,900 420 Climbing FlightAware ADS-B (YRPA)
08:18PM -33.9320 151.4565 88° East 362 417 5,000 600 Climbing FlightAware ADS-B (YRPA)
08:18PM -33.9306 151.4998 88° East 367 422 5,300 1,320 Climbing FlightAware ADS-B (YRPA)
08:19PM -33.9289 151.5377 87° East 367 422 5,900 1,860 Climbing FlightAware ADS-B (YRPA)
08:19PM -33.9268 151.5836 87° East 372 428 6,600 1,560 Climbing FlightAware ADS-B (YRPA)
08:19PM -33.9251 151.6240 87° East 382 440 7,000 1,320 Climbing FlightAware ADS-B (YRPA)
08:20PM -33.9233 151.6685 87° East 389 448 7,500 1,620 Climbing FlightAware ADS-B (YRPA)
08:20PM -33.9200 151.7510 87° East 401 461 8,600 1,800 Climbing FlightAware ADS-B (YRPA)
08:21PM -33.9178 151.8052 87° East 406 467 9,400 2,040 Climbing FlightAware ADS-B (YRPA)
08:21PM -33.9084 151.8898 82° East 417 480 10,700 2,640 Climbing FlightAware ADS-B (YSSY / SYD)
08:22PM -33.9084 151.8898 82° East 402 463 12,900 2,880 Climbing FlightAware ADS-B (YSSY / SYD)
08:22PM -33.9084 151.8898 82° East 402 463 14,200 1,740 Climbing FlightAware ADS-B (YSSY / SYD)
08:23PM -33.7757 152.0888 82° East 412 474 15,000 2,160 Climbing Aus ATC (RADAR)
08:23PM -33.7539 152.1202 82° East 411 473 16,300 2,520 Climbing FlightAware ADS-B (YRPA)
08:24PM -33.7130 152.1767 82° East 412 474 17,100 1,800 Climbing Aus ATC (RADAR)
08:24PM -33.6964 152.2005 82° East 425 489 17,700 2,100 Climbing FlightAware ADS-B (YRPA)
08:25PM -33.6437 152.2739 49° Northeast 441 507 19,000 1,680 Climbing FlightAware ADS-B (YRPA)
08:26PM -33.5878 152.3518 49° Northeast 453 521 20,000 1,620 Climbing FlightAware ADS-B (YRPA)
08:26PM -33.5428 152.4159 49° Northeast 453 521 21,000 2,100 Climbing Aus ATC (RADAR)
08:26PM -33.5376 152.4222 49° Northeast 450 518 21,300 1,740 Climbing FlightAware ADS-B (YRPA)
08:27PM -33.4684 152.5189 49° Northeast 459 528 22,600 1,800 Climbing FlightAware ADS-B (YRPA)
08:28PM -33.3936 152.6229 49° Northeast 459 528 24,400 1,740 Climbing FlightAware ADS-B (YRPA)
08:29PM -33.3181 152.7290 49° Northeast 452 520 25,800 1,860 Climbing Aus ATC (RADAR)
08:29PM -33.3008 152.7523 49° Northeast 453 521 26,500 1,200 Climbing FlightAware ADS-B (YRPA)
08:30PM -33.2064 152.8841 49° Northeast 459 528 27,400 960 Climbing Aus ATC (RADAR)
08:30PM -33.1821 152.9165 49° Northeast 454 522 27,900 840 Climbing FlightAware ADS-B (YRPA)
08:31PM -33.1252 152.9952 49° Northeast 497 572 28,200 120 Climbing FlightAware ADS-B (YRPA)
08:31PM -33.1130 153.0126 49° Northeast 495 570 28,000 300 Descending Aus ATC (RADAR)
08:32PM -33.0672 153.0754 49° Northeast 502 578 28,400 780 Climbing Aus ATC (RADAR)
08:33PM -32.9811 153.1930 49° Northeast 524 603 29,100 420 Climbing FlightAware ADS-B (YRPA)
08:33PM -32.9230 153.2723 49° Northeast 534 615 29,100 360 Level Aus ATC (RADAR)
08:34PM -32.8822 153.3280 49° Northeast 543 625 29,500 360 Climbing FlightAware ADS-B (YRPA)
08:34PM -32.8032 153.4365 49° Northeast 545 627 29,600 900 Climbing Aus ATC (RADAR)
08:36PM -32.6528 153.6409 49° Northeast 559 643 31,600 1,380 Climbing Aus ATC (RADAR)
08:36PM -32.6387 153.6595 49° Northeast 557 641 31,900 1,080 Climbing FlightAware ADS-B (YRPA)
08:37PM -32.5677 153.7553 49° Northeast 558 642 32,500 780 Climbing Aus ATC (RADAR)
08:38PM -32.4804 153.8734 49° Northeast 544 626 33,200 900 Climbing Aus ATC (RADAR)
08:38PM -32.4299 153.9420 49° Northeast 542 624 33,800 1,200 Climbing Aus ATC (RADAR)
08:39PM -32.3401 154.0619 48° Northeast 548 631 34,900 780 Climbing Aus ATC (RADAR)
08:39PM -32.3071 154.1061 49° Northeast 543 625 34,800 -120 Descending Aus ATC (RADAR)
08:40PM -32.2129 154.2319 49° Northeast 526 605 34,800  Level Aus ATC (RADAR)
08:41PM -32.1463 154.3201 48° Northeast 525 604 34,800  Level Aus ATC (RADAR)
08:41PM -32.1129 154.3645 48° Northeast 526 605 34,800  Level Aus ATC (RADAR)
08:42PM -32.0551 154.4413 48° Northeast 523 602 34,800  Level Aus ATC (RADAR)
08:43PM -31.9675 154.5568 48° Northeast 535 616 34,800  Level Aus ATC (RADAR)
08:43PM -31.9179 154.6224 48° Northeast 537 618 34,800  Level Aus ATC (RADAR)
08:44PM -31.8363 154.7304 48° Northeast 528 608 34,800  Level Aus ATC (RADAR)
08:44PM -31.8047 154.7722 48° Northeast 520 598 34,800  Level Aus ATC (RADAR)
08:45PM -31.6994 154.9103 48° Northeast 494 568 34,800  Level Aus ATC (RADAR)
08:46PM -31.6288 155.0014 48° Northeast 517 595 34,800  Level Aus ATC (RADAR)
08:46PM -31.5969 155.0435 48° Northeast 519 597 34,800  Level Aus ATC (RADAR)
08:47PM -31.5457 155.1101 48° Northeast 505 581 34,800  Level Aus ATC (RADAR)
08:48PM -31.4659 155.2142 48° Northeast 502 578 34,800  Level Aus ATC (RADAR)
08:48PM -31.4187 155.2768 49° Northeast 498 573 34,800  Level Aus ATC (RADAR)
08:49PM -31.3307 155.3894 48° Northeast 521 600 34,800  Level Aus ATC (RADAR)
08:50PM -31.2978 155.4316 48° Northeast 524 603 34,800  Level Aus ATC (RADAR)
08:51PM -31.1679 155.5985 48° Northeast 521 600 34,800  Level Aus ATC (RADAR)
08:51PM -31.1354 155.6405 48° Northeast 523 602 34,800  Level Aus ATC (RADAR)
08:52PM -31.0856 155.7045 48° Northeast 529 609 34,800  Level Aus ATC (RADAR)
08:53PM -31.0016 155.8132 48° Northeast 511 588 34,800  Level Aus ATC (RADAR)
08:53PM -30.9519 155.8759 47° Northeast 511 588 34,800 120 Level Aus ATC (RADAR)
08:54PM -30.8698 155.9799 47° Northeast 505 581 35,000  Climbing Aus ATC (RADAR)
08:54PM -30.8397 156.0182 48° Northeast 519 597 34,800 -300 Descending Aus ATC (RADAR)
08:55PM -30.7913 156.0797 47° Northeast 517 595 34,800  Level Aus ATC (RADAR)
08:56PM -30.6461 156.2633 47° Northeast 513 590 34,800  Level Aus ATC (RADAR)
08:57PM -30.6139 156.3040 47° Northeast 513 590 34,800  Level Aus ATC (RADAR)
08:57PM -30.5498 156.3850 47° Northeast 511 588 34,800 120 Level Aus ATC (RADAR)
08:58PM -30.4684 156.4875 47° Northeast 516 594 35,000 120 Climbing Aus ATC (RADAR)
08:59PM -30.4027 156.5701 47° Northeast 521 600 35,000  Level Aus ATC (RADAR)
09:00PM -30.3200 156.6730 47° Northeast 523 602 35,000 -60 Level Aus ATC (RADAR)
09:00PM -30.2374 156.7760 47° Northeast 522 601 34,900  Descending Aus ATC (RADAR)
09:01PM -30.1641 156.8676 47° Northeast 520 598 35,000  Climbing Aus ATC (RADAR)
09:01PM -30.1398 156.8981 47° Northeast 518 596 34,900 -120 Descending Aus ATC (RADAR)
09:02PM -30.0736 156.9796 47° Northeast 519 597 34,900 60 Level Aus ATC (RADAR)
09:03PM -29.9913 157.0811 47° Northeast 518 596 35,000 60 Climbing Aus ATC (RADAR)
09:04PM -29.9284 157.1597 47° Northeast 510 587 35,000  Level Aus ATC (RADAR)
09:05PM -29.8286 157.2810 47° Northeast 517 595 35,000 -60 Level Aus ATC (RADAR)
09:06PM -29.7170 157.4200 47° Northeast 509 586 34,900  Descending Aus ATC (RADAR)
09:06PM -29.6420 157.5109 47° Northeast 516 594 35,000 60 Climbing Aus ATC (RADAR)
09:07PM -29.6099 157.5502 47° Northeast 514 592 35,000  Level Aus ATC (RADAR)
09:07PM -29.5601 157.6098 46° Northeast 515 593 35,000  Level Aus ATC (RADAR)
09:08PM -29.4814 157.7070 47° Northeast 504 580 35,000  Level Aus ATC (RADAR)
09:09PM -29.4331 157.7655 47° Northeast 503 579 35,000 -120 Level Aus ATC (RADAR)
09:10PM -29.3386 157.8806 47° Northeast 496 571 34,900  Descending Aus ATC (RADAR)
09:10PM -29.3146 157.9095 46° Northeast 496 571 35,000  Climbing Aus ATC (RADAR)
09:10PM -29.2910 157.9373 46° Northeast 496 571 34,900 -420 Descending Aus ATC (RADAR)
09:15PM -28.8631 158.4514 46° Northeast 37,000 420 Climbing Aus ATC (Calculated)
09:17PM -28.7052 158.6395 46° Northeast  Level FlightAware Approximate
09:17PM -28.5972 158.7676 226° Southwest 37,000  Level Aus ATC (Calculated)
09:18PM -28.6182 158.7427 46° Northeast  Level FlightAware Approximate
09:19PM -28.4970 158.8861 46° Northeast  Level FlightAware Approximate
09:20PM -28.4098 158.9890 46° Northeast  Level FlightAware Approximate
09:21PM -28.3225 159.0916 46° Northeast  Level FlightAware Approximate
09:21PM -28.2637 159.1760 29° Northeast 37,000  Level Aus ATC (Calculated)
09:22PM -28.2352 159.1941 46° Northeast  Level FlightAware Approximate
09:23PM -28.0902 159.0988 339° North  Level FlightAware Approximate
09:23PM -28.0616 159.4216 229° Southwest 37,000  Level Aus ATC (Calculated)
09:25PM -28.1664 159.2858 229° Southwest  Level FlightAware Approximate
09:26PM -28.2491 159.1785 229° Southwest  Level FlightAware Approximate
09:26PM -27.7766 159.7653 47° Northeast 37,000  Level Aus ATC (Calculated)
09:27PM -27.6904 159.8688 40° Northeast 37,000  Level Aus ATC (Calculated)
09:29PM -27.5292 160.0196 47° Northeast  Level Estimated
09:30PM -27.4435 160.1231 47° Northeast  Level FlightAware Approximate
09:30PM -27.3974 160.2185 10° North 37,000  Level Aus ATC (Calculated)
09:31PM -27.3578 160.2265 47° Northeast  Level FlightAware Approximate
09:32PM -27.2460 160.3979 47° Northeast  Level FlightAware Approximate
09:32PM -27.1357 160.5283 46° Northeast 37,000  Level Aus ATC (Calculated)
09:33PM -27.0690 160.6070 360° North 37,000  Level Aus ATC (Calculated)
09:33PM -27.0690 160.6070 46° Northeast 37,000  Level Aus ATC (Calculated)
09:35PM -26.9316 160.7684 46° Northeast  Level FlightAware Approximate
09:35PM -26.8749 160.8349 46° Northeast 37,000  Level Aus ATC (Calculated)
09:37PM -26.7372 160.9958 46° Northeast  Level FlightAware Approximate
09:37PM -26.6986 161.0409 46° Northeast 37,000  Level Aus ATC (Calculated)
09:38PM -26.6453 161.1030 46° Northeast 37,000  Level Aus ATC (Calculated)
09:39PM -26.5582 161.2042 46° Northeast  Level FlightAware Approximate
09:40PM -26.4711 161.3053 46° Northeast  Level FlightAware Approximate
09:40PM -26.4385 161.3430 46° Northeast 37,000  Level Aus ATC (Calculated)
09:41PM -26.3513 161.4439 46° Northeast  Level FlightAware Approximate
09:42PM -26.2639 161.5446 46° Northeast  Level FlightAware Approximate
09:43PM -26.1765 161.6452 46° Northeast  Level FlightAware Approximate
09:44PM -26.0891 161.7457 46° Northeast  Level FlightAware Approximate
09:45PM -26.0015 161.8460 46° Northeast  Level FlightAware Approximate
09:46PM -25.9139 161.9461 46° Northeast  Level FlightAware Approximate
09:47PM -25.8262 162.0461 46° Northeast  Level FlightAware Approximate
09:48PM -25.7385 162.1459 46° Northeast  Level FlightAware Approximate
09:49PM -25.6507 162.2456 46° Northeast  Level FlightAware Approximate
09:50PM -25.5628 162.3452 46° Northeast  Level FlightAware Approximate
09:50PM -25.3920 162.5380 226° Southwest 37,000  Level Aus ATC (Calculated)
09:51PM -25.4748 162.4446 46° Northeast  Level FlightAware Approximate
09:52PM -25.2158 162.7361 46° Northeast  Level FlightAware Approximate
09:53PM -25.1276 162.8349 45° Northeast  Level FlightAware Approximate
09:54PM -25.0393 162.9336 45° Northeast  Level FlightAware Approximate
09:55PM -24.9510 163.0322 45° Northeast  Level FlightAware Approximate
09:56PM -25.0393 162.9336 225° Southwest  Level FlightAware Approximate
09:57PM -24.9510 163.0322 45° Northeast  Level FlightAware Approximate
09:58PM -25.0393 162.9336 225° Southwest  Level FlightAware Approximate
09:59PM -24.9510 163.0322 45° Northeast  Level FlightAware Approximate
10:00PM -25.0393 162.9336 225° Southwest  Level FlightAware Approximate
10:01PM -24.9510 163.0322 45° Northeast  Level FlightAware Approximate
10:02PM -25.0393 162.9336 225° Southwest  Level FlightAware Approximate
10:03PM -24.9510 163.0322 45° Northeast  Level FlightAware Approximate
10:04PM -25.0393 162.9336 225° Southwest  Level FlightAware Approximate
10:05PM -24.9510 163.0322 45° Northeast  Level FlightAware Approximate
10:06PM -25.0393 162.9336 225° Southwest  Level FlightAware Approximate
10:07PM -24.9510 163.0322 45° Northeast  Level FlightAware Approximate
10:08PM -24.9203 163.0665 45° Northeast  Level FlightAware Approximate
10:09PM -24.8320 163.1650 45° Northeast  Level FlightAware Approximate
10:10PM -24.7436 163.2633 45° Northeast  Level FlightAware Approximate
10:11PM -24.6551 163.3615 45° Northeast  Level FlightAware Approximate
10:12PM -24.5666 163.4595 45° Northeast  Level FlightAware Approximate
10:13PM -24.4780 163.5575 45° Northeast  Level FlightAware Approximate
10:14PM -24.3894 163.6552 45° Northeast  Level FlightAware Approximate
10:15PM -24.3007 163.7529 45° Northeast  Level FlightAware Approximate
10:16PM -24.2119 163.8504 45° Northeast  Level FlightAware Approximate
10:17PM -24.1231 163.9478 45° Northeast  Level FlightAware Approximate
10:18PM -24.0342 164.0450 45° Northeast  Level FlightAware Approximate
10:19PM -23.9453 164.1421 45° Northeast  Level FlightAware Approximate
10:20PM -23.8563 164.2390 45° Northeast  Level FlightAware Approximate
10:21PM -23.7672 164.3359 45° Northeast  Level FlightAware Approximate
10:22PM -23.6780 164.4326 45° Northeast  Level FlightAware Approximate
10:23PM -23.5889 164.5291 45° Northeast  Level FlightAware Approximate
10:24PM -23.4996 164.6256 45° Northeast  Level FlightAware Approximate
10:25PM -23.4103 164.7219 45° Northeast  Level FlightAware Approximate
10:26PM -23.3209 164.8180 45° Northeast  Level FlightAware Approximate
10:27PM -23.2314 164.9141 45° Northeast  Level FlightAware Approximate
10:28PM -23.1419 165.0099 45° Northeast  Level FlightAware Approximate
10:29PM -23.0523 165.1057 45° Northeast  Level FlightAware Approximate
10:30PM -22.9627 165.2014 45° Northeast  Level FlightAware Approximate
10:31PM -22.8731 165.2969 44° Northeast  Level FlightAware Approximate
10:32PM -22.7833 165.3923 44° Northeast  Level FlightAware Approximate
10:33PM -22.6935 165.4875 44° Northeast  Level FlightAware Approximate
10:34PM -22.6037 165.5827 44° Northeast  Level FlightAware Approximate
10:35PM -22.5138 165.6777 44° Northeast  Level FlightAware Approximate
10:36PM -22.4238 165.7726 44° Northeast  Level FlightAware Approximate
10:37PM -22.3338 165.8673 44° Northeast  Level FlightAware Approximate
10:38PM -22.2437 165.9620 44° Northeast  Level FlightAware Approximate
10:39PM -22.1536 166.0565 44° Northeast  Level FlightAware Approximate
10:40PM -22.0634 166.1509 44° Northeast  Level FlightAware Approximate
10:41PM -21.9645 166.2313 24° Northeast  Level FlightAware Approximate
10:42PM -21.8497 166.2864 24° Northeast  Level FlightAware Approximate
10:43PM -21.7349 166.3413 24° Northeast  Level FlightAware Approximate
10:44PM -21.6201 166.3962 24° Northeast  Level FlightAware Approximate
10:45PM -21.5053 166.4510 24° Northeast  Level FlightAware Approximate
10:46PM -21.3904 166.5057 24° Northeast  Level FlightAware Approximate
10:47PM -21.2756 166.5604 24° Northeast  Level FlightAware Approximate
10:48PM -21.1607 166.6149 24° Northeast  Level FlightAware Approximate
10:49PM -21.0458 166.6694 24° Northeast  Level FlightAware Approximate
10:50PM -20.9309 166.7237 24° Northeast  Level FlightAware Approximate
10:51PM -20.8160 166.7780 24° Northeast  Level FlightAware Approximate
10:52PM -20.7010 166.8322 24° Northeast  Level FlightAware Approximate
10:53PM -20.5860 166.8864 24° Northeast  Level FlightAware Approximate
10:54PM -20.4711 166.9404 24° Northeast  Level FlightAware Approximate
10:55PM -20.3561 166.9944 24° Northeast  Level FlightAware Approximate
10:56PM -20.2411 167.0482 24° Northeast  Level FlightAware Approximate
10:57PM -20.1260 167.1020 24° Northeast  Level FlightAware Approximate
10:58PM -20.0110 167.1557 24° Northeast  Level FlightAware Approximate
10:59PM -19.8959 167.2094 24° Northeast  Level FlightAware Approximate
11:00PM -19.7808 167.2630 24° Northeast  Level FlightAware Approximate
11:01PM -19.6657 167.3165 24° Northeast  Level FlightAware Approximate
11:02PM -19.5506 167.3699 24° Northeast  Level FlightAware Approximate
11:03PM -19.4356 167.4234 24° Northeast  Level FlightAware Approximate
11:04PM -19.3206 167.4770 24° Northeast  Level FlightAware Approximate
11:05PM -19.2056 167.5306 24° Northeast  Level FlightAware Approximate
11:06PM -19.0906 167.5841 24° Northeast  Level FlightAware Approximate
11:07PM -18.9755 167.6375 24° Northeast  Level FlightAware Approximate
11:08PM -18.8605 167.6908 24° Northeast  Level FlightAware Approximate
11:09PM -18.7454 167.7441 24° Northeast  Level FlightAware Approximate
11:10PM -18.6304 167.7973 24° Northeast  Level FlightAware Approximate
11:11PM -18.5153 167.8505 24° Northeast  Level FlightAware Approximate
11:12PM -18.4003 167.9037 24° Northeast  Level FlightAware Approximate
11:13PM -18.2852 167.9570 24° Northeast  Level FlightAware Approximate
11:14PM -18.1702 168.0101 24° Northeast  Level FlightAware Approximate
11:15PM -18.0551 168.0632 24° Northeast  Level FlightAware Approximate
11:16PM -17.9401 168.1162 24° Northeast  Level FlightAware Approximate
11:17PM -17.8250 168.1691 24° Northeast  Level FlightAware Approximate
11:18PM -17.7099 168.2220 24° Northeast  Level FlightAware Approximate
11:19PM -17.6621 168.2439 24° Northeast  Level FlightAware Approximate
11:20PM -17.6993 168.3198 24° Northeast  Level Estimated
11:21PM -17.6993 168.3198 24° Northeast  Level Estimated
11:22PM -17.6993 168.3198 24° Northeast  Level Estimated
11:23PM -17.6993 168.3198 24° Northeast  Level Estimated
11:24PM -17.6993 168.3198 24° Northeast  Level Estimated
11:25PM -17.6993 168.3198 24° Northeast  Level Estimated
11:26PM -17.6993 168.3198 24° Northeast  Level Estimated
11:27PM -17.6993 168.3198 24° Northeast  Level Estimated
11:28PM -17.6993 168.3198 24° Northeast  Level Estimated